Time;durP1;ratioP1;P1;durP2;ratioP2;P2;SDS_P1;SDS_P2;PMS_P1;PMS_P2;Temp;Humidity;BMP_temperature;BMP_pressure;BME280_temperature;BME280_humidity;BME280_pressure;Samples;Min_cycle;Max_cycle;Signal;HPM_P1;HPM_P2
2023/03/16 07:35:03;;;;;;;0.33;0.33;;;8.60;99.90;12.10;101085.00;;;;6272872;22;20206;-68
2023/03/16 07:37:54;;;;;;;0.57;0.57;;;9.10;99.90;12.20;101159.00;;;;6162278;22;1356969;-68
2023/03/16 07:40:25;;;;;;;0.20;0.20;;;9.40;99.90;13.50;101172.00;;;;6190349;23;20166;-68
2023/03/16 07:42:53;;;;;;;0.70;0.53;;;9.90;99.90;13.70;101171.00;;;;6214263;23;20208;-68
2023/03/16 07:45:22;;;;;;;0.57;0.57;;;10.40;99.90;13.10;101130.00;;;;6214302;23;20215;-67
2023/03/16 07:47:53;;;;;;;0.77;0.77;;;10.60;99.90;12.90;101204.00;;;;6216771;23;20595;-68
2023/03/16 07:50:46;;;;;;;0.23;0.23;;;10.40;99.90;13.40;101201.00;;;;6190645;23;20247;-67
2023/03/16 07:53:15;;;;;;;0.13;0.13;;;10.60;99.90;13.90;101183.00;;;;6215372;23;20585;-67
2023/03/16 07:55:42;;;;;;;1.00;0.77;;;10.80;99.90;12.60;101195.00;;;;6215477;23;20472;-68
2023/03/16 07:58:11;;;;;;;0.50;0.50;;;10.50;99.90;13.00;101210.00;;;;6215247;23;20220;-68
2023/03/16 08:00:57;;;;;;;0.53;0.33;;;10.40;99.90;13.10;101208.00;;;;6190704;23;20155;-67
2023/03/16 08:03:36;;;;;;;0.30;0.30;;;10.20;99.90;13.80;101206.00;;;;6189409;23;20308;-68
2023/03/16 08:06:29;;;;;;;0.40;0.40;;;10.60;99.90;12.40;101214.00;;;;6214920;23;20537;-68
2023/03/16 08:09:16;;;;;;;0.40;0.20;;;10.20;99.90;12.50;101226.00;;;;6188848;23;20163;-68
2023/03/16 08:12:06;;;;;;;0.40;0.33;;;10.00;99.90;12.50;101232.00;;;;6190241;23;20166;-68
2023/03/16 08:15:06;;;;;;;0.50;0.50;;;9.90;99.90;12.80;101209.00;;;;6215608;23;20146;-68
2023/03/16 08:18:08;;;;;;;0.20;0.20;;;10.10;99.90;13.20;101213.00;;;;6215591;23;20154;-68
2023/03/16 08:20:37;;;;;;;0.20;0.20;;;10.20;99.90;13.00;101207.00;;;;6215236;23;20157;-68
2023/03/16 08:23:24;;;;;;;0.70;0.70;;;10.40;99.90;13.00;101202.00;;;;6213387;23;20184;-68
2023/03/16 08:26:42;;;;;;;3.73;3.47;;;10.60;99.90;13.40;101204.00;;;;6215236;23;20144;-68
2023/03/16 08:29:33;;;;;;;0.20;0.20;;;10.90;99.90;13.60;101145.00;;;;6215465;23;20176;-68
2023/03/16 08:32:40;;;;;;;0.27;0.27;;;10.90;99.90;14.30;101188.00;;;;6214395;23;20159;-68
2023/03/16 08:35:24;;;;;;;0.40;0.40;;;10.90;99.90;15.70;101153.00;;;;6214927;23;20181;-68
2023/03/16 08:41:31;;;;;;;0.13;0.13;;;12.10;99.90;15.50;101158.00;;;;6216911;23;20200;-68
2023/03/16 08:44:03;;;;;;;0.20;0.20;;;12.20;99.90;15.30;101169.00;;;;6215058;23;20151;-68
2023/03/16 08:46:32;;;;;;;0.10;0.10;;;12.30;99.90;14.70;101181.00;;;;6216330;23;20355;-70
2023/03/16 08:48:58;;;;;;;0.47;0.47;;;12.00;99.90;14.90;101169.00;;;;6189807;23;20201;-71
2023/03/16 08:51:39;;;;;;;0.77;0.33;;;12.10;99.90;14.70;101170.00;;;;6215228;23;20567;-75
2023/03/16 08:54:06;;;;;;;0.20;0.20;;;11.90;99.90;14.40;101183.00;;;;6190717;23;20165;-72
2023/03/16 08:56:43;;;;;;;0.60;0.47;;;11.80;99.90;13.70;101191.00;;;;6189871;23;20524;-70
2023/03/16 08:59:35;;;;;;;0.50;0.50;;;11.40;99.90;13.70;101202.00;;;;6214866;23;20162;-69
2023/03/16 09:02:41;;;;;;;0.33;0.33;;;11.10;99.90;15.30;101146.00;;;;6214398;23;20242;-69
2023/03/16 09:05:30;;;;;;;0.40;0.40;;;11.30;99.90;14.40;101169.00;;;;6214760;23;20167;-70
2023/03/16 09:08:32;;;;;;;0.20;0.20;;;11.50;99.90;14.10;101196.00;;;;6214596;23;20607;-70
2023/03/16 09:11:22;;;;;;;0.10;0.10;;;11.40;99.90;14.90;101165.00;;;;6214314;23;20290;-70
2023/03/16 09:14:26;;;;;;;0.10;0.10;;;11.50;99.90;14.40;101179.00;;;;6215983;23;20180;-70
2023/03/16 09:17:19;;;;;;;0.20;0.20;;;11.70;99.90;14.50;101177.00;;;;6191870;23;20176;-65
2023/03/16 09:19:46;;;;;;;0.77;0.37;;;11.60;99.90;14.00;101172.00;;;;6215049;23;20135;-70
2023/03/16 09:22:15;;;;;;;0.20;0.20;;;11.50;99.90;14.70;101181.00;;;;6189902;23;20648;-70
2023/03/16 09:25:36;;;;;;;0.10;0.10;;;11.50;99.90;14.60;101169.00;;;;6216103;23;20502;-68
2023/03/16 09:28:41;;;;;;;0.40;0.30;;;11.50;99.90;15.00;101177.00;;;;6216209;23;20148;-70
2023/03/16 09:34:11;;;;;;;0.20;0.20;;;11.60;99.90;14.50;101163.00;;;;6214705;23;20457;-71
2023/03/16 09:39:42;;;;;;;0.30;0.30;;;11.80;99.90;13.70;101194.00;;;;6213802;23;20160;-69
2023/03/16 09:42:26;;;;;;;0.30;0.30;;;11.40;99.90;14.40;101179.00;;;;6213372;23;20174;-74
2023/03/16 09:45:04;;;;;;;0.20;0.20;;;11.60;99.90;15.40;101159.00;;;;6213976;23;20164;-70
2023/03/16 09:47:33;;;;;;;0.60;0.60;;;12.00;99.90;15.50;101140.00;;;;6215710;23;20638;-68
2023/03/16 09:50:08;;;;;;;0.20;0.20;;;12.50;99.90;15.30;101143.00;;;;6214599;23;20147;-75
2023/03/16 09:53:05;;;;;;;0.33;0.33;;;12.40;99.90;15.30;101163.00;;;;6213565;23;20452;-71
2023/03/16 09:55:41;;;;;;;0.70;0.53;;;12.30;99.90;15.70;101139.00;;;;6214025;23;20160;-71
2023/03/16 09:58:24;;;;;;;0.20;0.20;;;12.50;99.90;16.00;101120.00;;;;6214617;23;20204;-70
2023/03/16 10:00:56;;;;;;;0.20;0.20;;;12.70;99.90;16.60;101133.00;;;;6189263;23;20155;-71
2023/03/16 10:03:55;;;;;;;0.10;0.10;;;13.30;99.90;16.20;101141.00;;;;6215762;23;20176;-71
2023/03/16 10:06:23;;;;;;;0.23;0.23;;;13.20;99.90;17.40;101056.00;;;;6215154;23;20179;-71
2023/03/16 10:09:13;;;;;;;0.20;0.20;;;13.80;99.90;17.30;101151.00;;;;6213902;23;20184;-70
2023/03/16 10:11:52;;;;;;;0.77;0.77;;;14.30;99.90;16.50;101179.00;;;;6202394;23;20673;-71
2023/03/16 10:14:57;;;;;;;0.30;0.30;;;14.10;99.90;16.50;101177.00;;;;6213649;23;20233;-70
2023/03/16 10:17:44;;;;;;;0.30;0.30;;;13.50;99.90;15.80;101192.00;;;;6175827;23;20168;-70
2023/03/16 10:20:37;;;;;;;0.30;0.27;;;13.20;99.90;16.50;101178.00;;;;6213740;23;20151;-71
2023/03/16 10:33:35;;;;;;;0.83;0.37;;;13.80;99.90;16.90;101150.00;;;;5072564;28;20575;-69
2023/03/16 10:36:18;;;;;;;0.37;0.37;;;14.20;99.90;16.80;101154.00;;;;5053868;28;20203;-68
2023/03/16 10:38:58;;;;;;;0.37;0.30;;;14.20;99.90;16.80;101157.00;;;;5053333;28;20217;-69
2023/03/16 10:41:36;;;;;;;1.10;0.73;;;14.10;99.90;17.40;101118.00;;;;5055500;28;20283;-68
2023/03/16 10:44:24;;;;;;;0.30;0.30;;;14.40;99.90;17.00;101062.00;;;;5053574;28;20183;-68
2023/03/16 10:47:36;;;;;;;0.77;0.50;;;14.50;99.90;17.70;101108.00;;;;5033747;28;20537;-69
2023/03/16 10:50:15;;;;;;;0.30;0.30;;;14.60;99.90;16.20;101116.00;;;;5049803;28;20196;-68
2023/03/16 10:53:43;;;;;;;0.10;0.10;;;14.20;99.90;16.70;101119.00;;;;5052151;28;20214;-68
2023/03/16 10:56:31;;;;;;;0.20;0.20;;;14.10;99.90;16.60;101095.00;;;;5009780;28;21630;-68
2023/03/16 10:59:28;;;;;;;0.73;0.53;;;14.00;99.90;17.20;101101.00;;;;4998201;28;20187;-68
2023/03/16 11:02:23;;;;;;;3.63;1.23;;;14.10;99.90;16.80;101105.00;;;;4997301;28;20210;-68
2023/03/16 11:05:14;;;;;;;0.20;0.20;;;14.40;99.90;17.20;101087.00;;;;5002436;28;20206;-71
2023/03/16 11:08:09;;;;;;;2.97;0.60;;;14.50;99.90;16.30;101105.00;;;;5052349;28;20249;-69
2023/03/16 11:11:07;;;;;;;0.97;0.87;;;14.30;99.90;16.70;101080.00;;;;5085924;28;20196;-68
2023/03/16 11:13:37;;;;;;;0.20;0.20;;;14.50;99.90;18.00;101081.00;;;;5056563;28;20194;-69
2023/03/16 11:16:21;;;;;;;0.20;0.20;;;14.70;99.90;18.70;101013.00;;;;5049841;28;20244;-69
2023/03/16 11:18:56;;;;;;;0.50;0.50;;;15.30;99.90;18.30;101055.00;;;;5049183;28;20178;-69
2023/03/16 11:21:45;;;;;;;0.43;0.43;;;15.40;99.90;18.60;101062.00;;;;5047366;28;20186;-68
2023/03/16 11:24:46;;;;;;;0.10;0.10;;;15.40;99.90;17.90;101075.00;;;;5039169;28;20189;-70
2023/03/16 11:27:48;;;;;;;0.43;0.43;;;15.20;99.90;17.70;101076.00;;;;5045848;28;20179;-68
2023/03/16 11:30:58;;;;;;;0.87;0.30;;;15.00;99.90;17.10;101087.00;;;;5078120;28;20175;-68
2023/03/16 11:33:29;;;;;;;0.40;0.40;;;14.90;99.90;17.20;101079.00;;;;5023085;28;20203;-68
2023/03/16 11:36:33;;;;;;;0.20;0.20;;;14.90;99.90;17.50;101079.00;;;;5040285;28;20195;-66
2023/03/16 11:39:04;;;;;;;0.10;0.10;;;14.60;99.90;18.00;101066.00;;;;5038615;28;20185;-67
2023/03/16 11:42:10;;;;;;;2.53;0.50;;;14.90;99.90;17.10;101062.00;;;;5049163;28;20192;-66
2023/03/16 11:44:48;;;;;;;1.07;0.50;;;14.70;99.90;17.00;101047.00;;;;5032985;28;20198;-66
2023/03/16 11:47:46;;;;;;;0.50;0.23;;;14.60;99.90;17.40;101052.00;;;;5040679;28;20181;-66
2023/03/16 11:50:59;;;;;;;4.00;0.80;;;14.80;99.90;17.60;101010.00;;;;5034574;28;20542;-66
2023/03/16 11:54:06;;;;;;;0.67;0.40;;;15.10;99.90;17.70;101021.00;;;;5039508;28;20329;-67
2023/03/16 12:00:01;;;;;;;0.10;0.10;;;14.60;99.90;17.90;100964.00;;;;5042487;28;20205;-66
2023/03/16 12:02:58;;;;;;;0.20;0.20;;;15.00;99.90;18.10;101012.00;;;;5041053;28;20200;-67
2023/03/16 12:05:56;;;;;;;0.50;0.50;;;15.30;99.90;18.40;101010.00;;;;5041313;28;20658;-67
2023/03/16 12:08:56;;;;;;;0.20;0.20;;;15.50;99.90;18.30;101012.00;;;;5040914;28;20182;-66
2023/03/16 12:11:51;;;;;;;0.20;0.20;;;15.40;99.90;17.70;100997.00;;;;5049799;28;20206;-67
2023/03/16 12:14:36;;;;;;;0.20;0.20;;;15.40;99.90;17.80;100936.00;;;;5029231;28;20222;-66
2023/03/16 12:17:44;;;;;;;0.20;0.20;;;15.40;99.90;18.60;100975.00;;;;5066226;28;20187;-66
2023/03/16 12:20:27;;;;;;;1.37;0.60;;;15.80;99.90;18.40;100978.00;;;;4989350;28;20293;-67
2023/03/16 12:23:01;;;;;;;0.20;0.20;;;15.70;99.90;18.40;100977.00;;;;4976893;28;20193;-66
2023/03/16 12:25:49;;;;;;;0.33;0.33;;;15.70;99.90;18.50;100952.00;;;;4993277;28;20205;-66
2023/03/16 12:28:42;;;;;;;0.63;0.43;;;15.80;99.90;18.40;100983.00;;;;4976360;28;20195;-66
2023/03/16 12:31:30;;;;;;;0.20;0.20;;;15.80;99.90;17.50;101008.00;;;;4996216;28;20327;-66
2023/03/16 12:34:24;;;;;;;0.10;0.10;;;15.50;99.90;19.50;100985.00;;;;5026879;28;20193;-67
2023/03/16 12:37:18;;;;;;;0.10;0.10;;;15.90;99.90;20.00;100985.00;;;;5028475;28;20220;-67
2023/03/16 12:39:56;;;;;;;2.30;0.70;;;16.60;99.90;18.70;100997.00;;;;5013117;28;20185;-67
2023/03/16 12:42:40;;;;;;;0.20;0.20;;;16.40;99.90;18.50;100984.00;;;;5033075;28;20200;-66
2023/03/16 12:45:24;;;;;;;0.10;0.10;;;16.00;99.90;17.80;100951.00;;;;5024613;28;20237;-67
2023/03/16 12:48:00;;;;;;;0.50;0.20;;;15.50;99.90;18.10;100993.00;;;;5023106;28;20289;-67
2023/03/16 12:50:48;;;;;;;0.60;0.50;;;15.50;99.90;18.40;100966.00;;;;5047844;28;20184;-67
2023/03/16 12:53:52;;;;;;;0.17;0.17;;;15.80;99.90;17.90;100979.00;;;;5032921;28;20292;-67
2023/03/16 12:56:31;;;;;;;0.30;0.30;;;15.50;99.90;17.40;100975.00;;;;5033982;28;20270;-67
2023/03/16 12:59:06;;;;;;;0.47;0.47;;;15.30;99.90;17.10;100988.00;;;;5038337;28;20658;-66
2023/03/16 13:02:21;;;;;;;0.20;0.20;;;15.10;99.90;17.80;100975.00;;;;5039558;28;20208;-67
2023/03/16 13:05:15;;;;;;;0.10;0.10;;;15.00;99.90;17.70;100966.00;;;;5013878;28;20666;-67
2023/03/16 13:08:05;;;;;;;0.20;0.20;;;15.30;99.90;17.60;100972.00;;;;5039915;28;20190;-67
2023/03/16 13:10:37;;;;;;;0.87;0.20;;;15.20;99.90;17.90;100976.00;;;;5038889;28;20230;-67
2023/03/16 13:13:27;;;;;;;0.23;0.20;;;15.40;99.90;17.70;100969.00;;;;5038665;28;20217;-67
2023/03/16 13:16:23;;;;;;;0.53;0.30;;;15.20;99.90;18.80;100963.00;;;;5039004;28;20642;-67
2023/03/16 13:18:55;;;;;;;0.13;0.13;;;15.50;99.90;18.00;100964.00;;;;5037996;28;20261;-67
2023/03/16 13:22:00;;;;;;;0.37;0.37;;;15.50;99.90;18.10;100958.00;;;;5022363;28;20199;-67
2023/03/16 13:24:58;;;;;;;0.63;0.37;;;15.40;99.90;17.60;100961.00;;;;5036738;28;20245;-67
2023/03/16 13:27:44;;;;;;;1.17;1.17;;;15.20;99.90;18.20;100939.00;;;;5040116;28;20189;-67
2023/03/16 13:30:38;;;;;;;0.30;0.30;;;15.30;99.90;18.10;100937.00;;;;5037953;28;20240;-67
2023/03/16 13:33:30;;;;;;;0.20;0.20;;;15.40;99.90;17.60;100943.00;;;;5039749;28;20305;-67
2023/03/16 13:36:06;;;;;;;0.10;0.10;;;15.20;99.90;19.00;100921.00;;;;5021935;28;20304;-67
2023/03/16 13:39:10;;;;;;;0.33;0.30;;;15.50;99.90;18.20;100911.00;;;;5039874;28;20187;-67
2023/03/16 13:42:03;;;;;;;0.10;0.10;;;15.50;99.90;18.30;100913.00;;;;5039029;28;20180;-67
2023/03/16 13:44:38;;;;;;;0.53;0.53;;;15.60;99.90;17.70;100945.00;;;;5040293;28;20197;-67
2023/03/16 13:47:35;;;;;;;0.27;0.20;;;15.40;99.90;17.40;100947.00;;;;5030676;28;20586;-67
2023/03/16 13:50:01;;;;;;;0.43;0.43;;;15.20;99.90;17.80;100939.00;;;;5024561;28;20240;-67
2023/03/16 13:52:33;;;;;;;0.20;0.20;;;15.30;99.90;18.70;100885.00;;;;5021128;28;20661;-67
2023/03/16 13:55:30;;;;;;;0.13;0.13;;;15.50;99.90;18.50;100914.00;;;;5039320;28;20206;-67
2023/03/16 13:58:22;;;;;;;0.10;0.10;;;15.60;99.90;18.20;100923.00;;;;5039336;28;20183;-68
2023/03/16 14:01:28;;;;;;;0.10;0.10;;;15.60;99.90;18.80;100903.00;;;;5039677;28;20248;-68
2023/03/16 14:04:22;;;;;;;0.43;0.40;;;15.60;99.90;18.40;100909.00;;;;5025500;28;20191;-68
2023/03/16 14:07:23;;;;;;;0.30;0.30;;;15.60;99.90;18.10;100908.00;;;;5037471;28;20196;-68
2023/03/16 14:10:11;;;;;;;0.40;0.30;;;15.50;99.90;18.00;100899.00;;;;5035297;28;20195;-67
2023/03/16 14:13:21;;;;;;;2.10;0.77;;;15.40;99.90;17.90;100893.00;;;;5023079;28;20233;-68
2023/03/16 14:16:26;;;;;;;0.10;0.10;;;15.40;99.90;18.10;100914.00;;;;5037239;28;20552;-67
2023/03/16 14:20:06;;;;;;;0.30;0.30;;;15.50;99.90;18.00;100908.00;;;;5038886;28;20185;-67
2023/03/16 14:23:15;;;;;;;2.23;0.60;;;15.40;99.90;19.40;100899.00;;;;5036155;28;20199;-67
2023/03/16 14:26:37;;;;;;;0.10;0.10;;;15.80;99.90;18.10;100901.00;;;;5037268;28;20190;-67
2023/03/16 14:30:08;;;;;;;0.43;0.43;;;15.70;99.90;18.30;100846.00;;;;5040132;28;20281;-67
2023/03/16 14:33:25;;;;;;;0.20;0.20;;;15.60;99.90;18.40;100891.00;;;;5038648;28;20585;-67
2023/03/16 14:36:53;;;;;;;0.10;0.10;;;15.50;99.90;19.40;100876.00;;;;5021206;28;20626;-67
2023/03/16 14:40:00;;;;;;;0.20;0.20;;;15.90;99.90;18.70;100826.00;;;;5039228;28;20237;-67
2023/03/16 14:42:51;;;;;;;0.30;0.30;;;16.10;99.90;18.20;100862.00;;;;5021538;28;20196;-67
2023/03/16 14:45:42;;;;;;;0.30;0.30;;;15.80;99.90;18.90;100850.00;;;;5021306;28;20539;-67
2023/03/16 14:48:37;;;;;;;0.20;0.20;;;15.80;99.90;19.00;100858.00;;;;5045652;28;20233;-67
2023/03/16 14:51:41;;;;;;;0.10;0.10;;;15.80;99.90;18.50;100856.00;;;;5040516;28;20274;-68
2023/03/16 14:55:08;;;;;;;0.30;0.30;;;15.80;99.90;18.70;100799.00;;;;5008690;28;20265;-67
2023/03/16 14:58:26;;;;;;;0.20;0.20;;;15.70;99.90;18.70;100812.00;;;;5039274;28;20190;-67
2023/03/16 15:01:39;;;;;;;0.20;0.20;;;15.80;99.90;18.70;100833.00;;;;5061780;28;20188;-66
2023/03/16 15:04:43;;;;;;;1.30;0.43;;;15.90;99.90;18.80;100839.00;;;;5029814;28;20178;-66
2023/03/16 15:07:45;;;;;;;0.97;0.83;;;15.90;99.90;18.50;100836.00;;;;5026759;28;20187;-67
2023/03/16 15:10:34;;;;;;;0.20;0.20;;;15.80;99.90;19.30;100832.00;;;;5028713;28;20293;-67
2023/03/16 15:16:29;;;;;;;0.30;0.30;;;15.70;99.90;18.30;100825.00;;;;5031178;28;20201;-67
2023/03/16 15:18:55;;;;;;;0.60;0.23;;;15.60;99.90;18.10;100846.00;;;;5015469;28;20202;-66
2023/03/16 15:21:30;;;;;;;0.13;0.13;;;15.50;99.90;19.20;100821.00;;;;5035342;28;20211;-67
2023/03/16 15:23:57;;;;;;;1.07;1.07;;;15.70;99.90;19.30;100810.00;;;;5019915;28;20273;-66
2023/03/16 15:26:31;;;;;;;0.50;0.37;;;15.90;99.90;18.80;100822.00;;;;5035313;28;20642;-66
2023/03/16 15:28:57;;;;;;;0.23;0.23;;;15.90;99.90;18.80;100828.00;;;;5018824;28;20204;-66
2023/03/16 15:31:27;;;;;;;0.53;0.30;;;15.80;99.90;18.20;100834.00;;;;5034473;28;20210;-66
2023/03/16 15:33:58;;;;;;;0.33;0.33;;;15.50;99.90;18.00;100834.00;;;;5034555;28;20184;-65
2023/03/16 15:36:32;;;;;;;0.40;0.40;;;15.30;99.90;18.10;100787.00;;;;5039939;28;20200;-66
2023/03/16 15:39:21;;;;;;;0.23;0.23;;;15.40;99.90;18.50;100831.00;;;;5014959;28;20213;-67
2023/03/16 15:41:52;;;;;;;0.53;0.30;;;15.40;99.90;18.20;100827.00;;;;5049059;28;20203;-67
2023/03/16 15:44:32;;;;;;;1.00;0.53;;;15.30;99.90;17.90;100819.00;;;;5034987;28;20186;-67
2023/03/16 15:46:59;;;;;;;0.20;0.20;;;15.30;99.90;18.30;100812.00;;;;5033623;28;20303;-67
2023/03/16 15:49:42;;;;;;;0.87;0.47;;;15.30;99.90;17.50;100833.00;;;;5034923;28;20210;-67
2023/03/16 15:52:51;;;;;;;0.97;0.50;;;15.20;99.90;18.40;100822.00;;;;5024708;28;20196;-66
2023/03/16 15:55:47;;;;;;;0.30;0.30;;;15.20;99.90;19.00;100815.00;;;;5023831;28;20188;-67
2023/03/16 15:58:24;;;;;;;0.20;0.20;;;15.50;99.90;18.20;100821.00;;;;5034804;28;20265;-66
2023/03/16 16:01:24;;;;;;;0.10;0.10;;;15.50;99.90;18.40;100820.00;;;;5018031;28;20250;-67
2023/03/16 16:04:19;;;;;;;0.10;0.10;;;15.50;99.90;18.50;100763.00;;;;5060034;28;20186;-66
2023/03/16 16:07:04;;;;;;;0.10;0.10;;;15.40;99.90;18.20;100812.00;;;;5028283;28;20543;-67
2023/03/16 16:09:37;;;;;;;0.50;0.50;;;15.40;99.90;18.20;100813.00;;;;5018159;28;20185;-67
2023/03/16 16:12:13;;;;;;;0.10;0.10;;;15.40;99.90;18.10;100804.00;;;;5017444;28;20609;-67
2023/03/16 16:14:58;;;;;;;0.57;0.20;;;15.30;99.90;18.50;100785.00;;;;5020948;28;20610;-67
2023/03/16 16:17:27;;;;;;;0.90;0.73;;;15.40;99.90;18.40;100812.00;;;;5034945;28;20203;-66
2023/03/16 16:20:34;;;;;;;0.10;0.10;;;15.40;99.90;18.90;100800.00;;;;5040445;28;20183;-67
2023/03/16 16:23:18;;;;;;;0.17;0.17;;;15.50;99.90;18.40;100799.00;;;;5018180;28;20190;-67
2023/03/16 16:26:24;;;;;;;2.53;2.37;;;15.40;99.90;18.60;100801.00;;;;5028626;28;20179;-67
2023/03/16 16:29:15;;;;;;;0.23;0.23;;;15.30;99.90;18.20;100802.00;;;;5021858;28;20217;-67
2023/03/16 16:31:59;;;;;;;0.30;0.20;;;15.20;99.90;18.00;100801.00;;;;5064863;28;20704;-67
2023/03/16 16:34:43;;;;;;;0.20;0.20;;;15.10;99.90;18.10;100783.00;;;;5016505;28;20537;-67
2023/03/16 16:37:27;;;;;;;0.30;0.30;;;15.10;99.90;17.50;100768.00;;;;5030339;28;20705;-66
2023/03/16 16:40:18;;;;;;;0.20;0.20;;;14.90;99.90;17.80;100786.00;;;;5031537;28;20269;-67
2023/03/16 16:43:05;;;;;;;0.93;0.33;;;14.80;99.90;17.90;100791.00;;;;5017115;28;20193;-67
2023/03/16 16:45:56;;;;;;;0.10;0.10;;;14.80;99.90;18.00;100770.00;;;;5042704;28;20231;-67
2023/03/16 16:48:49;;;;;;;0.20;0.20;;;14.90;99.90;17.90;100786.00;;;;5027151;28;20217;-67
2023/03/16 16:52:25;;;;;;;0.10;0.10;;;14.80;99.90;18.60;100766.00;;;;5033262;28;20200;-67
2023/03/16 16:55:12;;;;;;;0.10;0.10;;;14.90;99.90;18.10;100781.00;;;;5029600;28;20215;-67
2023/03/16 16:57:55;;;;;;;0.20;0.20;;;14.80;99.90;18.40;100726.00;;;;5013619;28;20202;-67
2023/03/16 17:00:41;;;;;;;0.20;0.20;;;14.80;99.90;18.20;100733.00;;;;5066208;28;20188;-67
2023/03/16 17:03:26;;;;;;;0.10;0.10;;;14.80;99.90;17.90;100793.00;;;;5017110;28;20640;-67
2023/03/16 17:06:17;;;;;;;0.27;0.27;;;14.80;99.90;17.90;100797.00;;;;5030259;28;20216;-67
2023/03/16 17:08:46;;;;;;;0.30;0.30;;;14.60;99.90;18.00;100788.00;;;;5016831;28;20272;-66
2023/03/16 17:11:37;;;;;;;;;;;;;;;;;;;;;
2023/03/16 17:14:11;;;;;;;0.20;0.20;;;14.70;99.90;18.00;100795.00;;;;5030393;28;20185;-66
2023/03/16 17:16:49;;;;;;;0.40;0.40;;;14.70;99.90;18.30;100789.00;;;;5014130;28;20190;-66
2023/03/16 17:19:27;;;;;;;0.10;0.10;;;14.60;99.90;18.20;100786.00;;;;5046152;28;20226;-67
2023/03/16 17:21:56;;;;;;;0.10;0.10;;;14.70;99.90;18.00;100730.00;;;;5027576;28;20188;-66
2023/03/16 17:24:26;;;;;;;0.10;0.10;;;14.70;99.90;17.70;100767.00;;;;5016563;28;20620;-66
2023/03/16 17:27:21;;;;;;;0.67;0.67;;;14.60;99.90;18.00;100769.00;;;;5033506;28;20185;-67
2023/03/16 17:29:52;;;;;;;0.10;0.10;;;14.50;99.90;17.90;100785.00;;;;5034607;28;20192;-66
2023/03/16 17:32:24;;;;;;;0.10;0.10;;;14.50;99.90;17.50;100781.00;;;;5020160;28;20302;-67
2023/03/16 17:34:51;;;;;;;0.20;0.20;;;14.40;99.90;17.70;100788.00;;;;5032623;28;20581;-66
2023/03/16 17:37:25;;;;;;;0.10;0.10;;;14.30;99.90;17.70;100732.00;;;;5032720;28;20547;-67
2023/03/16 17:40:17;;;;;;;0.33;0.33;;;14.20;99.90;18.00;100786.00;;;;5028453;28;20760;-67
2023/03/16 17:43:01;;;;;;;0.10;0.10;;;14.40;99.90;17.20;100797.00;;;;5022413;28;20594;-66
2023/03/16 17:48:58;;;;;;;0.10;0.10;;;14.20;99.90;17.40;100800.00;;;;5018081;28;20343;-66
2023/03/16 17:51:50;;;;;;;0.10;0.10;;;14.10;99.90;17.20;100777.00;;;;5028146;28;20203;-67
2023/03/16 17:54:33;;;;;;;0.20;0.20;;;13.90;99.90;17.50;100772.00;;;;5031325;28;20226;-67
2023/03/16 17:57:47;;;;;;;0.10;0.10;;;14.00;99.90;18.00;100732.00;;;;5047243;28;20276;-73
2023/03/16 18:00:34;;;;;;;0.10;0.10;;;14.20;99.90;17.60;100782.00;;;;5016780;28;20183;-67
2023/03/16 18:03:16;;;;;;;0.10;0.10;;;14.00;99.90;17.40;100782.00;;;;5026334;28;20283;-67
2023/03/16 18:06:13;;;;;;;0.10;0.10;;;13.90;99.90;16.80;100805.00;;;;5034081;28;20191;-66
2023/03/16 18:08:52;;;;;;;0.50;0.50;;;13.60;99.90;17.60;100782.00;;;;5031551;28;20288;-68
2023/03/16 18:11:40;;;;;;;0.20;0.20;;;13.80;99.90;17.60;100773.00;;;;5032192;28;20190;-65
2023/03/16 18:14:34;;;;;;;0.97;0.97;;;13.80;99.90;17.50;100779.00;;;;5015912;28;20188;-65
2023/03/16 18:17:29;;;;;;;0.10;0.10;;;13.70;99.90;17.50;100774.00;;;;5033341;28;20186;-65
2023/03/16 18:20:22;;;;;;;0.20;0.20;;;13.70;99.90;17.20;100763.00;;;;5025145;28;20188;-65
2023/03/16 18:23:16;;;;;;;0.10;0.10;;;13.60;99.90;17.30;100759.00;;;;5022078;28;20202;-65
2023/03/16 18:26:02;;;;;;;0.10;0.10;;;13.60;99.90;17.40;100766.00;;;;5020342;28;20194;-65
2023/03/16 18:28:49;;;;;;;0.43;0.33;;;13.60;99.90;17.30;100763.00;;;;5031732;28;20209;-65
2023/03/16 18:31:45;;;;;;;0.10;0.10;;;13.60;99.90;17.30;100766.00;;;;5021845;28;20206;-65
2023/03/16 18:34:32;;;;;;;0.77;0.20;;;13.50;99.90;16.50;100782.00;;;;5023107;28;20214;-65
2023/03/16 18:37:22;;;;;;;0.10;0.10;;;13.30;99.90;17.10;100759.00;;;;5031488;28;20258;-66
2023/03/16 18:40:15;;;;;;;0.10;0.10;;;13.30;99.90;16.60;100772.00;;;;5031052;28;20205;-65
2023/03/16 18:43:02;;;;;;;0.20;0.20;;;13.20;99.90;16.80;100757.00;;;;5028287;28;20225;-65
2023/03/16 18:45:46;;;;;;;0.17;0.17;;;13.20;99.90;16.60;100758.00;;;;5013631;28;20224;-65
2023/03/16 18:48:31;;;;;;;0.27;0.27;;;13.10;99.90;16.40;100761.00;;;;5056112;28;20189;-65
2023/03/16 18:51:03;;;;;;;0.30;0.23;;;13.10;99.90;16.20;100765.00;;;;5032288;28;20652;-65
2023/03/16 18:54:07;;;;;;;0.10;0.10;;;13.00;99.90;16.50;100767.00;;;;5032210;28;20683;-65
2023/03/16 18:56:42;;;;;;;0.30;0.30;;;13.10;99.90;16.40;100753.00;;;;5034791;28;20189;-66
2023/03/16 18:59:26;;;;;;;0.10;0.10;;;13.10;99.90;16.70;100764.00;;;;5035947;28;20221;-66
2023/03/16 19:01:52;;;;;;;0.40;0.40;;;13.10;99.90;16.00;100771.00;;;;5018099;28;20212;-66
2023/03/16 19:04:47;;;;;;;0.53;0.30;;;13.00;99.90;16.40;100767.00;;;;5036542;28;20256;-66
2023/03/16 19:07:37;;;;;;;0.17;0.17;;;13.10;99.90;16.60;100766.00;;;;5034461;28;20184;-66
2023/03/16 19:10:35;;;;;;;0.20;0.20;;;13.10;99.90;16.20;100770.00;;;;5020794;28;20189;-66
2023/03/16 19:13:40;;;;;;;4.13;0.37;;;13.00;99.90;16.80;100752.00;;;;5063818;28;20274;-66
2023/03/16 19:16:23;;;;;;;0.20;0.20;;;13.10;99.90;16.50;100761.00;;;;5060295;28;20178;-66
2023/03/16 19:19:14;;;;;;;4.63;2.17;;;13.00;99.90;16.30;100741.00;;;;5035694;28;20181;-66
2023/03/16 19:22:11;;;;;;;0.97;0.27;;;13.10;99.90;16.40;100750.00;;;;5034443;28;20190;-66
2023/03/16 19:25:02;;;;;;;0.37;0.37;;;13.00;99.90;16.10;100748.00;;;;5032149;28;20213;-66
2023/03/16 19:27:35;;;;;;;0.53;0.50;;;12.90;99.90;15.90;100757.00;;;;5033347;28;20189;-66
2023/03/16 19:30:05;;;;;;;0.70;0.70;;;12.70;99.90;15.90;100749.00;;;;5034532;28;20191;-65
2023/03/16 19:32:52;;;;;;;0.10;0.10;;;12.70;99.90;16.40;100709.00;;;;5034034;28;20226;-66
2023/03/16 19:35:36;;;;;;;0.43;0.43;;;12.80;99.90;16.10;100756.00;;;;5034638;28;20210;-66
2023/03/16 19:38:23;;;;;;;0.10;0.10;;;12.80;99.90;16.30;100742.00;;;;5024630;28;20192;-66
2023/03/16 19:41:28;;;;;;;0.10;0.10;;;12.80;99.90;16.70;100726.00;;;;5034698;28;20189;-66
2023/03/16 19:44:16;;;;;;;0.57;0.57;;;12.80;99.90;16.10;100683.00;;;;5028830;28;20313;-66
2023/03/16 19:46:43;;;;;;;0.43;0.43;;;12.70;99.90;15.80;100725.00;;;;5050890;28;20183;-66
2023/03/16 19:49:28;;;;;;;0.90;0.63;;;12.70;99.90;15.60;100740.00;;;;5034058;28;20187;-66
2023/03/16 19:52:13;;;;;;;0.37;0.37;;;12.40;99.90;16.00;100696.00;;;;5033539;28;20923;-66
2023/03/16 19:54:57;;;;;;;0.10;0.10;;;12.60;99.90;15.90;100715.00;;;;5035423;28;20659;-66
2023/03/16 19:57:41;;;;;;;0.10;0.10;;;12.60;99.90;16.10;100722.00;;;;5035436;28;20715;-66
2023/03/16 20:00:29;;;;;;;0.30;0.30;;;12.60;99.90;15.70;100745.00;;;;5033392;28;20190;-65
2023/03/16 20:03:12;;;;;;;0.20;0.20;;;12.50;99.90;16.20;100731.00;;;;5033855;28;20167;-65
2023/03/16 20:05:55;;;;;;;0.13;0.13;;;12.60;99.90;16.30;100736.00;;;;5034032;28;20191;-65
2023/03/16 20:08:29;;;;;;;0.20;0.20;;;12.70;99.90;15.90;100676.00;;;;5032987;28;20221;-65
2023/03/16 20:11:09;;;;;;;1.17;1.13;;;12.50;99.90;15.50;100739.00;;;;5034334;28;20565;-65
2023/03/16 20:13:53;;;;;;;0.17;0.17;;;12.50;99.90;15.90;100718.00;;;;5033776;28;20257;-65
2023/03/16 20:16:27;;;;;;;0.20;0.20;;;12.50;99.90;16.20;100730.00;;;;5034150;28;20199;-65
2023/03/16 20:19:00;;;;;;;2.63;0.93;;;12.60;99.90;16.00;100737.00;;;;5017351;28;20271;-65
2023/03/16 20:21:43;;;;;;;0.53;0.53;;;12.60;99.90;16.00;100672.00;;;;5033688;28;20204;-65